ZWWW/URC METAR and TAF weather

Enter ICAO airport designator
Station Type Date Time Source
ZWWW METAR 2019/02/16 17:00 UTC NOAA

ZWWW 161700Z 28001MPS 1800 BR NSC M14/M16 Q1029 NOSIG


Station Type Date Time Source
ZWWW Decoded METAR 2019/02/16 17:00 UTC NOAA

Urum-Qi / Diwopu, China (ZWWW) 43-54N 087-28E
Feb 16, 2019 - 12:00 PM EST / 2019.02.16 1700 UTC
Wind: from the W (280 degrees) at 2 MPH (2 KT):0
Visibility: 1 mile(s):0
Weather: mist
Temperature: 6 F (-14 C)
Dew Point: 3 F (-16 C)
Relative Humidity: 84%
Pressure (altimeter): 30.39 in. Hg (1029 hPa)
ob: ZWWW 161700Z 28001MPS 1800 BR NSC M14/M16 Q1029 NOSIG
cycle: 17

Station Type Date Time Source
ZWWW TAF 2019/02/16 18:03 UTC NOAA

TAF ZWWW 161533Z 1618/1718 20002MPS 1600 BR NSC TXM08/09Z TNM15/23Z
BECMG 1620/1621 1100 BR BKN012
BECMG 1703/1704 05002MPS 1600 BR NSC
BECMG 1713/1714 18003MPS 1200 BR


Example: see airport list